createdAt,value
2023-02-12T00:01:39.399Z,15.15
2023-02-12T00:04:06.818Z,14.75
2023-02-12T00:06:34.802Z,12.20
2023-02-12T00:09:02.097Z,12.82
2023-02-12T00:11:32.429Z,13.50
2023-02-12T00:14:01.630Z,13.55
2023-02-12T00:16:33.735Z,14.65
2023-02-12T00:19:01.083Z,14.43
2023-02-12T00:21:28.463Z,14.98
2023-02-12T00:23:55.956Z,14.13
2023-02-12T00:26:26.336Z,17.77
2023-02-12T00:28:54.091Z,17.40
2023-02-12T00:31:28.464Z,20.77
2023-02-12T00:33:56.149Z,19.48
2023-02-12T00:36:28.905Z,17.52
2023-02-12T00:38:56.691Z,16.45
2023-02-12T00:41:24.614Z,16.05
2023-02-12T00:43:52.291Z,15.85
2023-02-12T00:46:19.844Z,16.15
2023-02-12T00:48:47.207Z,15.85
2023-02-12T00:51:14.815Z,15.45
2023-02-12T00:53:43.252Z,15.90
2023-02-12T00:56:10.530Z,15.32
2023-02-12T00:58:37.823Z,17.38
2023-02-12T01:01:05.256Z,16.20
2023-02-12T01:03:32.652Z,16.23
2023-02-12T01:06:02.560Z,15.23
2023-02-12T01:08:30.249Z,16.40
2023-02-12T01:11:02.997Z,15.55
2023-02-12T01:13:34.000Z,14.38
2023-02-12T01:16:04.821Z,15.57
2023-02-12T01:18:32.159Z,16.40
2023-02-12T01:21:01.850Z,14.90
2023-02-12T01:23:29.094Z,15.73
2023-02-12T01:25:58.885Z,15.43
2023-02-12T01:28:28.395Z,15.52
2023-02-12T01:30:55.760Z,14.80
2023-02-12T01:33:23.058Z,14.75
2023-02-12T01:35:50.286Z,15.25
2023-02-12T01:38:20.006Z,16.63
2023-02-12T01:40:47.307Z,15.13
2023-02-12T01:43:15.999Z,15.10
2023-02-12T01:45:43.842Z,15.07
2023-02-12T01:48:12.514Z,15.15
2023-02-12T01:50:44.268Z,14.85
2023-02-12T01:53:20.079Z,14.10
2023-02-12T01:55:50.237Z,13.63
2023-02-12T01:58:17.916Z,14.93
2023-02-12T02:00:48.061Z,15.60
2023-02-12T02:03:15.755Z,15.65
2023-02-12T02:05:56.507Z,16.35
2023-02-12T02:08:28.902Z,15.38
2023-02-12T02:10:56.155Z,15.13
2023-02-12T02:13:41.963Z,15.65
2023-02-12T02:16:25.897Z,14.65
2023-02-12T02:19:02.519Z,14.52
2023-02-12T02:21:41.646Z,15.30
2023-02-12T02:24:26.465Z,14.93
2023-02-12T02:27:31.539Z,14.77
2023-02-12T02:30:26.032Z,14.88
2023-02-12T02:33:02.337Z,16.70
2023-02-12T02:35:48.834Z,14.57
2023-02-12T02:38:49.460Z,14.80
2023-02-12T02:41:25.979Z,15.18
2023-02-12T02:43:54.645Z,14.88
2023-02-12T02:46:44.391Z,14.27
2023-02-12T02:49:25.184Z,14.77
2023-02-12T02:51:59.814Z,15.02
2023-02-12T02:54:34.706Z,15.73
2023-02-12T02:57:27.950Z,13.57
2023-02-12T03:00:05.847Z,13.48
2023-02-12T03:02:38.349Z,14.27
2023-02-12T03:05:15.668Z,13.48
2023-02-12T03:07:56.667Z,14.98
2023-02-12T03:10:31.421Z,14.07
2023-02-12T03:13:10.170Z,14.30
2023-02-12T03:16:00.428Z,13.95
2023-02-12T03:18:49.041Z,14.13
2023-02-12T03:21:27.320Z,13.60
2023-02-12T03:24:32.906Z,14.13
2023-02-12T03:27:28.656Z,14.02
2023-02-12T03:29:58.576Z,13.77
2023-02-12T03:32:37.042Z,13.45
2023-02-12T03:35:15.349Z,14.23
2023-02-12T03:37:51.755Z,13.80
2023-02-12T03:40:40.175Z,13.90
2023-02-12T03:43:17.702Z,13.40
2023-02-12T03:46:31.342Z,12.27
2023-02-12T03:49:03.791Z,12.70
2023-02-12T03:51:43.395Z,12.77
2023-02-12T03:54:17.983Z,13.23
2023-02-12T03:57:01.410Z,14.23
2023-02-12T03:59:29.412Z,13.05
2023-02-12T04:01:59.434Z,14.07
2023-02-12T04:04:27.812Z,14.10
2023-02-12T04:06:55.848Z,13.35
2023-02-12T04:09:26.215Z,12.88
2023-02-12T04:12:21.168Z,13.85
2023-02-12T04:15:13.059Z,12.32
2023-02-12T04:17:47.178Z,12.30
2023-02-12T04:20:36.005Z,13.48
2023-02-12T04:23:03.200Z,12.45
2023-02-12T04:26:08.376Z,13.50
2023-02-12T04:28:50.300Z,13.40
2023-02-12T04:31:55.960Z,14.13
2023-02-12T04:34:51.814Z,12.32
2023-02-12T04:37:38.243Z,14.13
2023-02-12T04:40:14.990Z,14.07
2023-02-12T04:42:51.308Z,13.45
2023-02-12T04:45:27.682Z,13.15
2023-02-12T04:47:55.068Z,12.73
2023-02-12T04:50:23.055Z,13.50
2023-02-12T04:52:50.407Z,12.82
2023-02-12T04:55:20.415Z,13.75
2023-02-12T04:57:47.891Z,12.70
2023-02-12T05:00:18.049Z,12.52
2023-02-12T05:02:45.383Z,12.45
2023-02-12T05:05:15.176Z,13.18
2023-02-12T05:07:42.504Z,12.88
2023-02-12T05:10:10.120Z,13.13
2023-02-12T05:12:39.836Z,11.75
2023-02-12T05:15:07.714Z,11.93
2023-02-12T05:17:38.205Z,12.30
2023-02-12T05:20:06.715Z,12.15
2023-02-12T05:22:36.371Z,12.70
2023-02-12T05:25:08.957Z,12.02
2023-02-12T05:27:36.296Z,11.70
2023-02-12T05:30:05.525Z,11.25
2023-02-12T05:32:32.801Z,11.73
2023-02-12T05:35:02.279Z,12.35
2023-02-12T05:37:31.662Z,11.95
2023-02-12T05:40:01.138Z,11.80
2023-02-12T05:42:31.885Z,12.02
2023-02-12T05:45:01.365Z,12.10
2023-02-12T05:47:28.625Z,11.18
2023-02-12T05:49:55.851Z,11.65
2023-02-12T05:52:23.117Z,12.40
2023-02-12T05:54:52.700Z,12.15
2023-02-12T05:57:22.066Z,13.75
2023-02-12T05:59:49.287Z,11.75
2023-02-12T06:02:18.781Z,12.40
2023-02-12T06:04:48.544Z,12.75
2023-02-12T06:07:15.977Z,12.57
2023-02-12T06:09:43.221Z,11.43
2023-02-12T06:12:10.457Z,11.63
2023-02-12T06:14:37.695Z,12.00
2023-02-12T06:17:05.308Z,12.77
2023-02-12T06:19:32.594Z,12.05
2023-02-12T06:22:04.282Z,12.32
2023-02-12T06:24:33.939Z,11.10
2023-02-12T06:27:06.070Z,12.07
2023-02-12T06:29:33.425Z,12.23
2023-02-12T06:32:00.829Z,12.43
2023-02-12T06:34:28.180Z,12.60
2023-02-12T06:36:55.484Z,12.80
2023-02-12T06:39:22.823Z,12.93
2023-02-12T06:41:50.399Z,12.27
2023-02-12T06:44:20.043Z,11.32
2023-02-12T06:46:47.296Z,11.23
2023-02-12T06:49:17.572Z,12.90
2023-02-12T06:51:47.263Z,12.00
2023-02-12T06:54:19.859Z,12.15
2023-02-12T06:56:47.112Z,12.80
2023-02-12T06:59:16.939Z,12.25
2023-02-12T07:01:44.378Z,11.25
2023-02-12T07:04:16.670Z,11.88
2023-02-12T07:06:43.972Z,12.20
2023-02-12T07:09:13.977Z,11.82
2023-02-12T07:11:41.255Z,11.23
2023-02-12T07:14:13.436Z,11.80
2023-02-12T07:16:40.789Z,10.57
2023-02-12T07:19:08.074Z,11.43
2023-02-12T07:21:35.408Z,11.23
2023-02-12T07:24:02.750Z,11.77
2023-02-12T07:26:30.022Z,12.65
2023-02-12T07:29:00.772Z,12.88
2023-02-12T07:31:30.786Z,10.82
2023-02-12T07:34:02.562Z,12.63
2023-02-12T07:36:34.509Z,11.20
2023-02-12T07:39:01.821Z,11.02
2023-02-12T07:41:34.663Z,11.32
2023-02-12T07:44:10.436Z,10.27
2023-02-12T07:46:41.345Z,12.15
2023-02-12T07:49:12.415Z,10.75
2023-02-12T07:51:42.217Z,10.95
2023-02-12T07:54:11.321Z,11.13
2023-02-12T07:56:39.942Z,11.73
2023-02-12T07:59:12.856Z,11.88
2023-02-12T08:01:49.020Z,11.00
2023-02-12T08:04:24.155Z,11.43
2023-02-12T08:06:54.125Z,11.15
2023-02-12T08:09:24.821Z,11.18
2023-02-12T08:11:55.067Z,10.63
2023-02-12T08:14:27.392Z,11.13
2023-02-12T08:16:54.823Z,11.55
2023-02-12T08:19:26.189Z,11.18
2023-02-12T08:21:57.481Z,10.77
2023-02-12T08:24:24.996Z,11.48
2023-02-12T08:26:55.006Z,10.68
2023-02-12T08:29:25.158Z,10.82
2023-02-12T08:32:00.028Z,11.13
2023-02-12T08:34:30.093Z,10.13
2023-02-12T08:37:00.062Z,11.60
2023-02-12T08:39:29.086Z,12.55
2023-02-12T08:42:00.113Z,11.45
2023-02-12T08:44:28.119Z,12.15
2023-02-12T08:47:00.666Z,11.23
2023-02-12T08:49:30.312Z,10.35
2023-02-12T08:51:59.232Z,11.02
2023-02-12T08:54:28.741Z,10.88
2023-02-12T08:57:03.549Z,10.70
2023-02-12T08:59:30.898Z,10.90
2023-02-12T09:01:58.222Z,9.82
2023-02-12T09:04:27.610Z,10.50
2023-02-12T09:06:55.663Z,11.90
2023-02-12T09:09:23.204Z,10.60
2023-02-12T09:11:53.092Z,10.32
2023-02-12T09:14:26.089Z,11.65
2023-02-12T09:16:54.665Z,10.85
2023-02-12T09:19:25.392Z,12.00
2023-02-12T09:21:56.047Z,11.73
2023-02-12T09:24:27.825Z,11.13
2023-02-12T09:26:57.867Z,12.30
2023-02-12T09:29:25.307Z,12.35
2023-02-12T09:31:52.817Z,11.93
2023-02-12T09:34:23.616Z,11.82
2023-02-12T09:36:50.960Z,11.95
2023-02-12T09:39:18.209Z,12.23
2023-02-12T09:42:07.684Z,11.95
2023-02-12T09:44:46.677Z,12.90
2023-02-12T09:47:26.959Z,13.45
2023-02-12T09:50:13.735Z,12.75
2023-02-12T09:52:41.702Z,13.75
2023-02-12T09:55:19.485Z,12.70
2023-02-12T09:57:46.996Z,12.15
2023-02-12T10:00:20.260Z,11.68
2023-02-12T10:02:53.185Z,12.32
2023-02-12T10:05:35.166Z,12.48
2023-02-12T10:08:17.077Z,13.27
2023-02-12T10:10:54.128Z,12.07
2023-02-12T10:14:08.943Z,12.75
2023-02-12T10:17:08.089Z,13.68
2023-02-12T10:19:53.797Z,12.68
2023-02-12T10:22:56.173Z,13.13
2023-02-12T10:25:41.143Z,13.02
2023-02-12T10:28:38.881Z,12.82
2023-02-12T10:31:29.364Z,12.23
2023-02-12T10:34:00.395Z,12.50
2023-02-12T10:36:46.522Z,12.52
2023-02-12T10:39:29.511Z,11.82
2023-02-12T10:42:17.633Z,12.10
2023-02-12T10:44:47.359Z,11.95
2023-02-12T10:47:19.766Z,10.75
2023-02-12T10:49:52.919Z,10.73
2023-02-12T10:52:26.588Z,10.02
2023-02-12T10:54:54.217Z,10.25
2023-02-12T10:57:23.213Z,10.10
2023-02-12T10:59:54.007Z,10.35
2023-02-12T11:02:30.490Z,9.05
2023-02-12T11:05:15.834Z,10.43
2023-02-12T11:07:51.668Z,9.90
2023-02-12T11:10:32.080Z,9.75
2023-02-12T11:13:05.115Z,8.85
2023-02-12T11:15:46.284Z,8.90
2023-02-12T11:18:27.101Z,8.98
2023-02-12T11:21:08.747Z,10.10
2023-02-12T11:23:47.383Z,9.68
2023-02-12T11:26:20.612Z,9.52
2023-02-12T11:29:17.252Z,9.50
2023-02-12T11:32:08.440Z,10.40
2023-02-12T11:34:39.223Z,9.80
2023-02-12T11:37:18.130Z,9.95
2023-02-12T11:39:50.447Z,9.68
2023-02-12T11:42:22.474Z,10.02
2023-02-12T11:44:59.892Z,10.32
2023-02-12T11:47:33.871Z,11.05
2023-02-12T11:50:18.027Z,10.50
2023-02-12T11:52:50.263Z,9.77
2023-02-12T11:55:36.089Z,8.30
2023-02-12T11:58:20.394Z,9.02
2023-02-12T12:00:53.907Z,8.40
2023-02-12T12:06:18.408Z,8.57
2023-02-12T12:08:51.403Z,8.98
2023-02-12T12:11:31.218Z,9.07
2023-02-12T12:14:17.362Z,9.27
2023-02-12T12:17:09.525Z,8.55
2023-02-12T12:19:52.502Z,8.77
2023-02-12T12:22:45.874Z,7.77
2023-02-12T12:25:33.095Z,8.15
2023-02-12T12:28:13.613Z,8.98
2023-02-12T12:31:02.784Z,9.35
2023-02-12T12:33:39.540Z,8.95
2023-02-12T12:36:34.354Z,9.70
2023-02-12T12:39:37.150Z,9.48
2023-02-12T12:42:31.875Z,9.23
2023-02-12T12:45:17.134Z,10.02
2023-02-12T12:48:06.157Z,10.23
2023-02-12T12:50:39.004Z,10.25
2023-02-12T12:53:21.320Z,10.23
2023-02-12T12:55:51.734Z,9.75
2023-02-12T12:58:44.628Z,10.05
2023-02-12T13:01:20.567Z,9.18
2023-02-12T13:04:06.837Z,9.82
2023-02-12T13:06:52.761Z,9.60
2023-02-12T13:09:43.763Z,9.27
2023-02-12T13:12:48.617Z,9.43
2023-02-12T13:15:28.056Z,9.55
2023-02-12T13:18:09.512Z,9.52
2023-02-12T13:20:50.900Z,9.35
2023-02-12T13:23:42.167Z,9.63
2023-02-12T13:26:21.202Z,9.20
2023-02-12T13:29:00.984Z,9.15
2023-02-12T13:31:33.855Z,9.02
2023-02-12T13:34:09.517Z,10.25
2023-02-12T13:36:41.207Z,9.02
2023-02-12T13:39:34.051Z,9.90
2023-02-12T13:42:07.543Z,10.02
2023-02-12T13:44:51.519Z,10.10
2023-02-12T13:47:43.689Z,10.18
2023-02-12T13:50:46.571Z,10.55
2023-02-12T13:53:29.605Z,12.02
2023-02-12T13:56:07.151Z,11.15
2023-02-12T13:58:42.947Z,10.77
2023-02-12T14:01:34.202Z,10.63
2023-02-12T14:04:42.192Z,10.40
2023-02-12T14:07:12.867Z,9.90
2023-02-12T14:09:46.299Z,10.23
2023-02-12T14:12:30.454Z,10.48
2023-02-12T14:15:05.879Z,12.18
2023-02-12T14:17:33.087Z,11.02
2023-02-12T14:20:28.324Z,10.70
2023-02-12T14:23:19.485Z,11.63
2023-02-12T14:26:01.020Z,11.77
2023-02-12T14:28:34.904Z,11.35
2023-02-12T14:31:24.328Z,11.75
2023-02-12T14:34:16.307Z,10.32
2023-02-12T14:36:46.300Z,11.05
2023-02-12T14:39:22.071Z,11.00
2023-02-12T14:41:52.399Z,11.63
2023-02-12T14:44:29.381Z,11.55
2023-02-12T14:46:59.414Z,11.07
2023-02-12T14:49:30.044Z,10.55
2023-02-12T14:52:16.751Z,10.63
2023-02-12T14:55:01.752Z,11.35
2023-02-12T14:57:40.178Z,11.40
2023-02-12T15:00:29.895Z,12.48
2023-02-12T15:03:25.265Z,11.70
2023-02-12T15:06:09.869Z,11.43
2023-02-12T15:08:37.256Z,11.57
2023-02-12T15:11:18.996Z,12.23
2023-02-12T15:14:17.939Z,12.38
2023-02-12T15:17:06.660Z,11.85
2023-02-12T15:20:08.337Z,11.55
2023-02-12T15:22:40.456Z,12.90
2023-02-12T15:25:32.230Z,11.75
2023-02-12T15:28:13.637Z,12.68
2023-02-12T15:30:45.568Z,12.40
2023-02-12T15:33:24.577Z,12.27
2023-02-12T15:35:53.219Z,12.35
2023-02-12T15:38:33.451Z,11.88
2023-02-12T15:41:02.917Z,11.55
2023-02-12T15:43:35.357Z,11.90
2023-02-12T15:46:06.077Z,12.82
2023-02-12T15:48:36.261Z,13.02
2023-02-12T15:51:18.125Z,12.10
2023-02-12T15:53:48.064Z,11.75
2023-02-12T15:56:20.398Z,11.77
2023-02-12T15:58:48.157Z,12.93
2023-02-12T16:01:35.450Z,12.32
2023-02-12T16:04:07.628Z,12.00
2023-02-12T16:06:39.179Z,13.02
2023-02-12T16:09:19.451Z,13.35
2023-02-12T16:11:49.813Z,14.07
2023-02-12T16:14:31.476Z,12.68
2023-02-12T16:16:59.782Z,12.43
2023-02-12T16:19:33.095Z,13.05
2023-02-12T16:22:15.523Z,12.07
2023-02-12T16:24:52.491Z,12.27
2023-02-12T16:27:30.722Z,11.90
2023-02-12T16:30:27.683Z,12.32
2023-02-12T16:32:55.885Z,11.90
2023-02-12T16:35:30.327Z,12.63
2023-02-12T16:38:20.603Z,12.77
2023-02-12T16:41:25.551Z,12.65
2023-02-12T16:44:07.656Z,13.00
2023-02-12T16:46:45.303Z,12.27
2023-02-12T16:49:20.419Z,12.52
2023-02-12T16:51:48.530Z,12.70
2023-02-12T16:54:35.703Z,12.35
2023-02-12T16:57:05.086Z,11.90
2023-02-12T16:59:32.374Z,12.10
2023-02-12T17:02:04.318Z,12.45
2023-02-12T17:04:31.724Z,12.98
2023-02-12T17:06:59.002Z,12.77
2023-02-12T17:09:29.689Z,13.13
2023-02-12T17:11:57.565Z,11.32
2023-02-12T17:14:24.808Z,13.50
2023-02-12T17:16:52.073Z,12.82
2023-02-12T17:19:21.941Z,12.95
2023-02-12T17:21:51.987Z,13.05
2023-02-12T17:24:30.767Z,13.23
2023-02-12T17:26:58.058Z,12.93
2023-02-12T17:29:25.966Z,13.02
2023-02-12T17:31:58.185Z,13.15
2023-02-12T17:34:26.087Z,14.23
2023-02-12T17:36:53.726Z,13.05
2023-02-12T17:39:21.208Z,13.32
2023-02-12T17:41:51.804Z,14.38
2023-02-12T17:44:21.427Z,14.95
2023-02-12T17:46:51.132Z,13.05
2023-02-12T17:49:20.492Z,14.70
2023-02-12T17:51:47.737Z,14.00
2023-02-12T17:54:17.633Z,14.68
2023-02-12T17:56:44.864Z,14.85
2023-02-12T17:59:12.181Z,14.48
2023-02-12T18:01:41.046Z,15.07
2023-02-12T18:04:08.357Z,14.32
2023-02-12T18:06:38.075Z,15.32
2023-02-12T18:09:05.387Z,15.25
2023-02-12T18:11:35.053Z,14.77
2023-02-12T18:14:04.782Z,13.00
2023-02-12T18:16:35.017Z,14.95
2023-02-12T18:19:07.543Z,14.77
2023-02-12T18:21:37.242Z,15.15
2023-02-12T18:24:05.578Z,15.23
2023-02-12T18:26:33.101Z,15.30
2023-02-12T18:29:03.079Z,16.48
2023-02-12T18:31:30.650Z,16.40
2023-02-12T18:33:57.988Z,16.77
2023-02-12T18:36:25.293Z,15.82
2023-02-12T18:38:53.437Z,16.92
2023-02-12T18:41:29.361Z,14.98
2023-02-12T18:43:58.284Z,14.10
2023-02-12T18:46:28.301Z,14.80
2023-02-12T18:48:56.011Z,14.23
2023-02-12T18:51:28.559Z,15.50
2023-02-12T18:53:56.229Z,15.48
2023-02-12T18:56:26.455Z,15.75
2023-02-12T18:58:58.291Z,15.48
2023-02-12T19:01:27.067Z,15.65
2023-02-12T19:03:56.813Z,15.90
2023-02-12T19:06:24.796Z,15.63
2023-02-12T19:08:56.308Z,15.00
2023-02-12T19:11:23.861Z,16.00
2023-02-12T19:13:51.484Z,16.60
2023-02-12T19:16:21.423Z,16.30
2023-02-12T19:18:55.758Z,16.05
2023-02-12T19:21:26.748Z,16.67
2023-02-12T19:24:05.942Z,16.10
2023-02-12T19:26:35.097Z,16.40
2023-02-12T19:29:03.068Z,15.55
2023-02-12T19:31:38.939Z,15.15
2023-02-12T19:34:14.468Z,15.80
2023-02-12T19:36:42.559Z,16.02
2023-02-12T19:39:15.957Z,16.17
2023-02-12T19:41:43.997Z,17.02
2023-02-12T19:44:14.237Z,17.75
2023-02-12T19:46:46.311Z,15.38
2023-02-12T19:49:25.147Z,16.67
2023-02-12T19:51:52.780Z,16.50
2023-02-12T19:54:23.967Z,15.05
2023-02-12T19:56:52.831Z,15.38
2023-02-12T19:59:24.520Z,16.38
2023-02-12T20:01:52.088Z,14.68
2023-02-12T20:04:22.285Z,16.67
2023-02-12T20:06:53.236Z,13.70
2023-02-12T20:09:23.616Z,15.32
2023-02-12T20:11:51.177Z,15.13
2023-02-12T20:14:20.932Z,16.80
2023-02-12T20:16:49.857Z,15.65
2023-02-12T20:19:30.848Z,14.52
2023-02-12T20:22:04.077Z,16.17
2023-02-12T20:24:33.283Z,15.40
2023-02-12T20:27:01.934Z,15.60
2023-02-12T20:29:29.289Z,15.38
2023-02-12T20:31:56.779Z,15.27
2023-02-12T20:34:26.457Z,15.80
2023-02-12T20:36:56.194Z,16.88
2023-02-12T20:39:25.844Z,15.98
2023-02-12T20:41:53.196Z,15.63
2023-02-12T20:44:21.765Z,15.35
2023-02-12T20:46:54.392Z,15.38
2023-02-12T20:49:24.434Z,16.55
2023-02-12T20:51:52.629Z,14.60
2023-02-12T20:54:22.400Z,14.95
2023-02-12T20:56:53.055Z,15.38
2023-02-12T20:59:22.504Z,15.48
2023-02-12T21:01:50.081Z,15.23
2023-02-12T21:04:19.859Z,14.18
2023-02-12T21:06:48.442Z,12.50
2023-02-12T21:09:16.403Z,13.73
2023-02-12T21:11:45.817Z,14.32
2023-02-12T21:14:23.685Z,13.50
2023-02-12T21:16:53.391Z,12.30
2023-02-12T21:19:21.427Z,12.95
2023-02-12T21:21:49.340Z,13.77
2023-02-12T21:24:18.850Z,12.43
2023-02-12T21:26:46.506Z,13.60
2023-02-12T21:29:16.525Z,12.65
2023-02-12T21:31:46.291Z,13.27
2023-02-12T21:34:20.926Z,13.30
2023-02-12T21:36:52.075Z,14.25
2023-02-12T21:39:26.110Z,13.82
2023-02-12T21:42:02.375Z,13.80
2023-02-12T21:44:31.679Z,13.98
2023-02-12T21:46:59.109Z,14.10
2023-02-12T21:49:28.984Z,13.05
2023-02-12T21:52:02.029Z,14.38
2023-02-12T21:54:30.541Z,13.70
2023-02-12T21:57:02.951Z,13.05
2023-02-12T21:59:32.352Z,14.20
2023-02-12T22:02:00.676Z,13.98
2023-02-12T22:04:28.011Z,13.25
2023-02-12T22:07:03.143Z,13.75
2023-02-12T22:09:30.687Z,14.27
2023-02-12T22:11:57.929Z,14.38
2023-02-12T22:14:26.355Z,16.02
2023-02-12T22:16:55.959Z,18.05
2023-02-12T22:19:23.255Z,20.92
2023-02-12T22:21:54.119Z,19.52
2023-02-12T22:24:23.632Z,16.83
2023-02-12T22:26:50.972Z,16.05
2023-02-12T22:29:23.662Z,16.77
2023-02-12T22:31:51.279Z,15.50
2023-02-12T22:34:19.193Z,14.35
2023-02-12T22:36:50.095Z,13.88
2023-02-12T22:39:19.853Z,16.05
2023-02-12T22:41:47.619Z,16.30
2023-02-12T22:44:21.064Z,15.13
2023-02-12T22:46:49.435Z,16.00
2023-02-12T22:49:17.242Z,16.50
2023-02-12T22:51:46.586Z,15.88
2023-02-12T22:54:16.919Z,15.40
2023-02-12T22:56:52.020Z,16.38
2023-02-12T22:59:19.634Z,16.92
2023-02-12T23:01:49.573Z,17.88
2023-02-12T23:04:19.422Z,18.60
2023-02-12T23:06:47.034Z,19.38
2023-02-12T23:09:18.922Z,19.55
2023-02-12T23:11:46.772Z,18.23
2023-02-12T23:14:16.454Z,17.65
2023-02-12T23:16:44.143Z,15.80
2023-02-12T23:19:14.002Z,18.02
2023-02-12T23:21:41.381Z,17.70
2023-02-12T23:24:11.998Z,17.70
2023-02-12T23:26:39.257Z,17.73
2023-02-12T23:29:08.641Z,14.65
2023-02-12T23:31:38.187Z,14.50
2023-02-12T23:34:05.616Z,13.80
2023-02-12T23:36:35.529Z,16.33
2023-02-12T23:39:05.744Z,15.13
2023-02-12T23:41:37.643Z,15.98
2023-02-12T23:44:07.412Z,15.40
2023-02-12T23:46:34.690Z,13.70
2023-02-12T23:49:04.542Z,13.40
2023-02-12T23:51:32.175Z,13.35
2023-02-12T23:54:06.798Z,12.40
2023-02-12T23:56:36.378Z,14.15
2023-02-12T23:59:03.876Z,13.05
